< < Back
Terminal Aerodrome Forecast


Current Version              Previous Versions:   1  2  3  4  5  6  7  8  9  

Terminal Aerodrome Forecast

445
FTUS44 KBMX 281736
TAFTCL
TAF
KTCL 281736Z 2818/2918 20005KT P6SM SCT035
     FM290000 VRB03KT P6SM FEW250=

Latest METAR

880
SAUS70 KWBC 291600 RRE
MTRTCL
METAR KTCL 291553Z VRB06KT 9SM CLR 28/18 A2998 RMK AO2 SLP150
T02780183


USA.gov is the U.S. government's official web portal to all federal, state and local government web resources and services.